Time;durP1;ratioP1;P1;durP2;ratioP2;P2;SDS_P1;SDS_P2;PMS_P1;PMS_P2;Temp;Humidity;BMP_temperature;BMP_pressure;BME280_temperature;BME280_humidity;BME280_pressure;Samples;Min_cycle;Max_cycle;Signal;HPM_P1;HPM_P2
2021/06/20 00:01:33;;;;;;;7.40;6.32;;;;;;;26.50;49.32;101082.34;5018856;28;20674;-70
2021/06/20 00:03:59;;;;;;;7.35;6.65;;;;;;;26.52;49.26;101089.25;5017299;28;20249;-71
2021/06/20 00:06:24;;;;;;;8.05;7.35;;;;;;;26.51;49.21;101084.94;5010635;28;20648;-71
2021/06/20 00:08:50;;;;;;;7.35;6.65;;;;;;;26.51;49.35;101076.19;5009222;28;20656;-70
2021/06/20 00:11:16;;;;;;;7.85;7.00;;;;;;;26.45;49.28;101068.56;5009295;28;20249;-70
2021/06/20 00:13:41;;;;;;;8.07;7.05;;;;;;;26.41;49.49;101064.34;5009408;28;20179;-71
2021/06/20 00:16:06;;;;;;;8.00;7.22;;;;;;;26.42;49.68;101056.41;5009804;28;20179;-70
2021/06/20 00:18:31;;;;;;;7.63;7.03;;;;;;;26.40;49.41;101046.88;5009268;28;20708;-71
2021/06/20 00:20:57;;;;;;;7.75;6.97;;;;;;;26.37;49.69;101041.75;5008904;28;20213;-71
2021/06/20 00:23:22;;;;;;;6.63;6.13;;;;;;;26.37;49.52;101036.50;5007688;28;20700;-69
2021/06/20 00:25:47;;;;;;;7.72;6.93;;;;;;;26.37;49.95;101034.72;5009326;28;20191;-70
2021/06/20 00:28:12;;;;;;;7.55;6.85;;;;;;;26.37;49.79;101029.47;5010497;28;20183;-71
2021/06/20 00:30:38;;;;;;;7.65;6.88;;;;;;;26.34;49.79;101010.38;5011941;28;20229;-71
2021/06/20 00:33:04;;;;;;;7.85;6.75;;;;;;;26.33;49.65;101006.03;5013426;28;20202;-71
2021/06/20 00:35:29;;;;;;;9.90;7.20;;;;;;;26.32;49.58;100999.94;5013511;28;20180;-70
2021/06/20 00:37:55;;;;;;;7.07;6.47;;;;;;;26.29;49.65;100986.06;5013295;28;20266;-70
2021/06/20 00:40:21;;;;;;;8.73;7.50;;;;;;;26.28;49.86;100974.69;5012794;28;20207;-70
2021/06/20 00:42:47;;;;;;;7.72;7.03;;;;;;;26.28;49.95;100976.47;5013134;28;20858;-70
2021/06/20 00:45:17;;;;;;;7.13;6.53;;;;;;;26.28;49.44;100961.56;5012695;28;20278;-70
2021/06/20 00:47:42;;;;;;;7.50;6.82;;;;;;;26.23;49.65;100952.16;5013138;28;20187;-70
2021/06/20 00:50:08;;;;;;;7.22;6.53;;;;;;;26.23;49.90;100942.53;5012460;28;20207;-70
2021/06/20 00:52:35;;;;;;;8.45;7.45;;;;;;;26.20;50.22;100931.31;5012649;28;20266;-70
2021/06/20 00:55:00;;;;;;;6.88;6.22;;;;;;;26.22;49.75;100932.09;5012844;28;20171;-70
2021/06/20 00:57:25;;;;;;;8.38;7.30;;;;;;;26.20;50.19;100924.25;5012579;28;20190;-71
2021/06/20 00:59:51;;;;;;;7.45;6.75;;;;;;;26.22;49.66;100927.69;5012204;28;20210;-72
2021/06/20 01:02:18;;;;;;;6.88;6.20;;;;;;;26.22;49.88;100932.09;5012718;28;20195;-70
2021/06/20 01:04:46;;;;;;;7.20;6.60;;;;;;;26.20;49.95;100929.53;5012336;28;20195;-70
2021/06/20 01:07:19;;;;;;;6.85;6.25;;;;;;;26.22;49.99;100922.44;5012585;28;20282;-70
2021/06/20 01:09:45;;;;;;;6.50;6.00;;;;;;;26.22;49.75;100932.09;5012437;28;20675;-70
2021/06/20 01:12:12;;;;;;;7.35;6.40;;;;;;;26.21;49.77;100941.75;5011172;28;20301;-70
2021/06/20 01:14:38;;;;;;;6.68;6.15;;;;;;;26.21;49.44;100940.88;5012367;28;20183;-70
2021/06/20 01:17:04;;;;;;;8.95;6.57;;;;;;;26.21;49.77;100949.63;5012292;28;20178;-70
2021/06/20 01:19:29;;;;;;;7.43;6.72;;;;;;;26.17;49.35;100948.06;5024473;22;20369;-70
2021/06/20 01:21:55;;;;;;;8.02;7.28;;;;;;;26.18;49.58;100975.16;5006860;28;20270;-68
2021/06/20 01:24:20;;;;;;;7.18;6.47;;;;;;;26.17;50.05;100981.34;4992412;28;20207;-70
2021/06/20 01:26:46;;;;;;;7.15;6.55;;;;;;;26.14;49.55;100995.44;4975058;28;20192;-70
2021/06/20 01:29:13;;;;;;;6.75;6.07;;;;;;;26.12;49.68;101002.56;4993431;28;20215;-70
2021/06/20 01:31:48;;;;;;;7.32;6.47;;;;;;;26.12;49.71;101010.44;4974797;28;20263;-70
2021/06/20 01:34:13;;;;;;;7.03;6.32;;;;;;;26.12;49.85;101012.19;4961678;28;20649;-68
2021/06/20 01:36:38;;;;;;;6.65;6.05;;;;;;;26.11;49.99;101008.69;4991936;28;20184;-70
2021/06/20 01:39:05;;;;;;;8.18;7.00;;;;;;;26.09;49.85;101022.81;4991697;28;20640;-70
2021/06/20 01:41:31;;;;;;;6.97;6.30;;;;;;;26.07;49.87;101019.41;4991667;28;20180;-70
2021/06/20 01:43:56;;;;;;;7.40;6.57;;;;;;;26.08;49.80;101021.09;4992129;28;20235;-69
2021/06/20 01:46:22;;;;;;;7.20;6.50;;;;;;;26.05;49.90;101018.59;4991930;28;20191;-70
2021/06/20 01:48:47;;;;;;;7.32;6.72;;;;;;;26.01;50.48;101009.16;4991996;28;20199;-68
2021/06/20 01:51:12;;;;;;;6.85;6.32;;;;;;;26.02;50.16;100995.94;4992144;28;20667;-70
2021/06/20 01:53:37;;;;;;;7.53;6.83;;;;;;;26.02;50.21;100992.47;4992165;28;20298;-71
2021/06/20 01:56:03;;;;;;;8.68;7.05;;;;;;;26.01;50.20;100980.28;4991637;28;20243;-70
2021/06/20 01:58:28;;;;;;;6.85;6.22;;;;;;;25.99;50.10;100966.34;4991822;28;20179;-70
2021/06/20 02:00:56;;;;;;;9.13;6.90;;;;;;;25.99;50.10;100948.84;4991267;28;20666;-70
2021/06/20 02:03:24;;;;;;;6.85;6.25;;;;;;;25.98;50.32;100947.13;4991511;28;20211;-70
2021/06/20 02:05:50;;;;;;;7.40;6.70;;;;;;;25.96;50.24;100942.84;4974153;28;20180;-70
2021/06/20 02:08:20;;;;;;;7.32;6.53;;;;;;;25.97;50.45;100940.16;4991914;28;20187;-70
2021/06/20 02:10:47;;;;;;;7.63;7.03;;;;;;;26.00;50.34;100923.41;4991545;28;20195;-70
2021/06/20 02:13:12;;;;;;;8.07;7.38;;;;;;;25.98;50.18;100922.63;4991828;28;20236;-70
2021/06/20 02:15:37;;;;;;;7.88;7.18;;;;;;;25.97;50.58;100913.06;4976475;28;20753;-70
2021/06/20 02:18:03;;;;;;;7.73;7.03;;;;;;;25.98;49.98;100913.00;5018112;28;20180;-70
2021/06/20 02:20:28;;;;;;;8.40;7.03;;;;;;;26.00;50.23;100918.16;5000583;28;20220;-70
2021/06/20 02:22:54;;;;;;;8.95;8.05;;;;;;;25.99;50.15;100919.09;4974093;28;20311;-71
2021/06/20 02:25:22;;;;;;;7.80;6.82;;;;;;;25.96;50.61;100927.94;4991395;28;20708;-70
2021/06/20 02:27:49;;;;;;;7.93;7.22;;;;;;;25.95;50.69;100923.63;4991164;28;20223;-70
2021/06/20 02:30:16;;;;;;;7.80;7.10;;;;;;;25.94;50.44;100928.94;4990420;28;20258;-70
2021/06/20 02:32:42;;;;;;;8.15;7.35;;;;;;;25.93;50.30;100933.31;4990573;28;20511;-70
2021/06/20 02:35:11;;;;;;;8.30;7.20;;;;;;;25.90;50.44;100920.31;4973617;28;20242;-68
2021/06/20 02:37:36;;;;;;;8.13;7.10;;;;;;;25.92;50.39;100905.38;4991148;28;20198;-70
2021/06/20 02:40:03;;;;;;;8.27;7.57;;;;;;;25.93;50.78;100900.97;4990776;28;20191;-70
2021/06/20 02:42:28;;;;;;;8.05;7.05;;;;;;;25.92;50.46;100894.00;4990525;28;20178;-70
2021/06/20 02:44:54;;;;;;;8.43;7.63;;;;;;;25.90;50.46;100880.06;4991141;28;20207;-70
2021/06/20 02:47:19;;;;;;;9.00;8.13;;;;;;;25.90;50.84;100864.31;4990855;28;20190;-70
2021/06/20 02:49:45;;;;;;;8.17;7.40;;;;;;;25.89;50.83;100857.38;4990531;28;20287;-70
2021/06/20 02:52:13;;;;;;;8.37;7.67;;;;;;;25.89;50.93;100860.00;4990990;28;20176;-70
2021/06/20 02:54:52;;;;;;;9.13;8.43;;;;;;;25.87;50.74;100851.34;4991300;28;20831;-70
2021/06/20 02:57:19;;;;;;;8.23;7.43;;;;;;;25.86;50.54;100850.47;4990770;28;20179;-70
2021/06/20 02:59:44;;;;;;;8.70;7.90;;;;;;;25.85;51.23;100846.16;4990813;28;20199;-70
2021/06/20 03:02:09;;;;;;;8.40;7.70;;;;;;;25.85;50.91;100834.78;4990499;28;20234;-70
2021/06/20 03:04:35;;;;;;;7.82;7.22;;;;;;;25.85;50.90;100822.53;4973025;28;20704;-69
2021/06/20 03:07:00;;;;;;;10.85;7.82;;;;;;;25.87;50.55;100814.59;4973065;28;20179;-69
2021/06/20 03:09:25;;;;;;;8.70;7.88;;;;;;;25.87;50.94;100809.34;4990250;28;20572;-69
2021/06/20 03:11:51;;;;;;;8.90;7.80;;;;;;;25.84;50.66;100807.69;4972732;28;20189;-68
2021/06/20 03:14:16;;;;;;;9.00;8.10;;;;;;;25.85;51.26;100805.91;4990618;28;20180;-69
2021/06/20 03:16:43;;;;;;;9.00;8.20;;;;;;;25.86;51.12;100800.59;4990524;28;20186;-69
2021/06/20 03:19:09;;;;;;;8.63;7.90;;;;;;;25.85;51.12;100795.41;4990156;28;20694;-68
2021/06/20 03:21:35;;;;;;;8.70;7.80;;;;;;;25.87;51.19;100796.22;4990401;28;20199;-67
2021/06/20 03:24:00;;;;;;;8.33;7.63;;;;;;;25.85;51.01;100798.91;4990319;28;20200;-68
2021/06/20 03:26:26;;;;;;;9.03;8.13;;;;;;;25.85;50.95;100796.28;4989876;28;20172;-69
2021/06/20 03:28:52;;;;;;;9.23;8.32;;;;;;;25.85;51.00;100800.66;4972566;28;20207;-69
2021/06/20 03:31:18;;;;;;;9.23;8.53;;;;;;;25.82;51.31;100791.16;4989931;28;20175;-69
2021/06/20 03:33:45;;;;;;;9.13;8.23;;;;;;;25.81;51.10;100778.97;4990054;28;20178;-69
2021/06/20 03:36:10;;;;;;;9.20;8.23;;;;;;;25.81;51.48;100786.84;4989965;28;20569;-69
2021/06/20 03:38:36;;;;;;;9.30;8.30;;;;;;;25.80;51.21;100779.88;4989858;28;20245;-69
2021/06/20 03:41:01;;;;;;;9.37;8.57;;;;;;;25.81;51.48;100778.09;4972467;28;20294;-67
2021/06/20 03:43:26;;;;;;;8.90;8.13;;;;;;;25.81;51.45;100764.97;4990140;28;20207;-69
2021/06/20 03:45:51;;;;;;;9.63;8.70;;;;;;;25.78;51.46;100760.72;4990025;28;20668;-70
2021/06/20 03:48:17;;;;;;;9.83;8.53;;;;;;;25.79;51.33;100767.66;4972878;28;20175;-70
2021/06/20 03:50:42;;;;;;;11.27;8.55;;;;;;;25.80;51.63;100756.25;4989915;28;20199;-69
2021/06/20 03:53:07;;;;;;;9.32;8.40;;;;;;;25.79;51.45;100751.06;4972657;28;20172;-68
2021/06/20 03:55:33;;;;;;;11.07;8.50;;;;;;;25.78;51.71;100747.59;4989666;28;20172;-69
2021/06/20 03:57:58;;;;;;;9.13;8.00;;;;;;;25.80;51.50;100730.03;4990510;28;20187;-70
2021/06/20 04:00:24;;;;;;;8.73;7.97;;;;;;;25.81;51.59;100726.47;4989795;28;20195;-70
2021/06/20 04:02:49;;;;;;;9.23;8.43;;;;;;;25.81;51.58;100720.34;4990463;28;20199;-69
2021/06/20 04:05:15;;;;;;;10.30;9.20;;;;;;;25.81;51.42;100712.47;4993855;28;20179;-70
2021/06/20 04:07:41;;;;;;;9.15;8.27;;;;;;;25.77;51.43;100705.66;4993549;28;20184;-70
2021/06/20 04:10:07;;;;;;;10.03;9.00;;;;;;;25.77;52.02;100701.28;4994045;28;20695;-69
2021/06/20 04:12:32;;;;;;;10.10;9.10;;;;;;;25.74;51.86;100697.94;4976703;28;20187;-69
2021/06/20 04:14:57;;;;;;;9.23;8.30;;;;;;;25.74;51.89;100693.53;4994189;28;20176;-69
2021/06/20 04:17:23;;;;;;;9.38;8.68;;;;;;;25.75;51.92;100700.50;4994009;28;20191;-69
2021/06/20 04:19:49;;;;;;;11.13;9.17;;;;;;;25.76;52.21;100732.81;4975941;28;20818;-69
2021/06/20 04:22:14;;;;;;;9.80;8.97;;;;;;;25.77;52.12;100926.97;4994153;28;20183;-69
2021/06/20 04:24:39;;;;;;;9.90;9.00;;;;;;;25.81;52.22;100946.06;4994829;28;20630;-68
2021/06/20 04:27:05;;;;;;;10.75;9.63;;;;;;;25.83;51.53;100918.00;5000043;28;20207;-69
2021/06/20 04:29:31;;;;;;;16.15;10.40;;;;;;;25.84;52.04;100911.84;5016462;28;20202;-70
2021/06/20 04:31:56;;;;;;;10.70;9.35;;;;;;;25.85;51.60;100924.91;4998250;28;20253;-70
2021/06/20 04:34:21;;;;;;;13.23;9.80;;;;;;;25.85;51.82;100906.53;4992802;28;20198;-69
2021/06/20 04:36:47;;;;;;;10.70;9.50;;;;;;;25.87;51.61;100893.34;4993336;28;20213;-69
2021/06/20 04:39:14;;;;;;;10.70;9.60;;;;;;;25.86;52.15;100870.59;4992878;28;20206;-69
2021/06/20 04:41:40;;;;;;;10.80;9.20;;;;;;;25.87;52.17;100880.22;4993310;28;20175;-67
2021/06/20 04:44:42;;;;;;;9.43;8.53;;;;;;;25.89;52.33;100888.88;4993176;28;20253;-69
2021/06/20 04:46:51;;;;;;;9.68;8.88;;;;;;;25.90;51.87;100887.94;4992813;28;20311;-70
2021/06/20 04:49:19;;;;;;;10.10;9.13;;;;;;;25.91;52.20;100890.50;4975324;28;20290;-70
2021/06/20 04:51:44;;;;;;;9.47;8.57;;;;;;;25.91;52.43;100887.88;4993176;28;20176;-69
2021/06/20 04:54:13;;;;;;;9.48;8.68;;;;;;;25.91;52.31;100880.00;4993355;28;20226;-69
2021/06/20 04:56:39;;;;;;;8.43;7.63;;;;;;;25.89;52.72;100873.13;4993252;28;20548;-71
2021/06/20 04:59:05;;;;;;;9.23;8.32;;;;;;;25.89;52.40;100866.09;4991413;28;20259;-71
2021/06/20 05:01:31;;;;;;;7.78;7.07;;;;;;;25.87;53.02;100857.41;4975733;28;20207;-71
2021/06/20 05:03:56;;;;;;;9.40;7.60;;;;;;;25.86;52.96;100849.59;4975451;28;20669;-71
2021/06/20 05:06:22;;;;;;;9.70;6.80;;;;;;;25.85;52.61;100868.91;4992960;28;20183;-71
2021/06/20 05:08:48;;;;;;;7.73;6.97;;;;;;;25.86;52.98;100878.47;4975164;28;20179;-70
2021/06/20 05:11:13;;;;;;;8.73;5.93;;;;;;;25.87;52.88;100895.97;4993914;28;20180;-70
2021/06/20 05:13:38;;;;;;;6.60;5.93;;;;;;;25.85;52.89;100901.28;4994369;28;20823;-71
2021/06/20 05:16:04;;;;;;;7.45;5.60;;;;;;;25.82;52.87;100916.28;4992722;28;20176;-71
2021/06/20 05:18:29;;;;;;;8.43;5.47;;;;;;;25.83;52.82;100910.13;4993811;28;20259;-70
2021/06/20 05:20:55;;;;;;;5.97;5.10;;;;;;;25.83;52.93;100910.97;4991550;28;20210;-70
2021/06/20 05:23:21;;;;;;;6.27;5.23;;;;;;;25.84;52.87;100915.28;4993397;28;20208;-71
2021/06/20 05:25:46;;;;;;;6.45;4.78;;;;;;;25.84;52.66;100920.53;4993463;28;20178;-70
2021/06/20 05:28:12;;;;;;;6.23;5.13;;;;;;;25.84;52.64;100912.66;4993684;28;20187;-71
2021/06/20 05:30:37;;;;;;;5.90;4.40;;;;;;;25.83;52.53;100918.00;4991613;28;20218;-71
2021/06/20 05:33:02;;;;;;;4.83;4.27;;;;;;;25.81;52.36;100915.44;4992876;28;20263;-71
2021/06/20 05:35:28;;;;;;;5.70;3.90;;;;;;;25.79;52.55;100893.63;4992961;28;20702;-70
2021/06/20 05:37:53;;;;;;;5.30;4.13;;;;;;;25.77;52.84;100866.63;4992768;28;20172;-70
2021/06/20 05:40:18;;;;;;;8.40;3.47;;;;;;;25.76;52.70;100866.69;4983351;28;20215;-71
2021/06/20 05:42:44;;;;;;;6.53;3.87;;;;;;;25.74;52.88;100864.09;4974298;28;20291;-71
2021/06/20 05:45:10;;;;;;;7.87;3.70;;;;;;;25.73;52.90;100822.19;4984577;28;20183;-71
2021/06/20 05:47:35;;;;;;;6.67;3.37;;;;;;;25.72;52.47;100830.97;4992982;28;20719;-71
2021/06/20 05:50:00;;;;;;;5.23;3.70;;;;;;;25.69;52.47;100821.47;4992772;28;20204;-72
2021/06/20 05:52:26;;;;;;;5.30;3.40;;;;;;;25.68;52.96;100816.28;4975931;28;20183;-71
2021/06/20 05:54:51;;;;;;;5.80;3.03;;;;;;;25.66;52.87;100790.13;4987513;28;20189;-71
2021/06/20 05:57:18;;;;;;;3.90;3.00;;;;;;;25.62;52.97;100775.44;4983585;28;20184;-71
2021/06/20 05:59:43;;;;;;;5.33;3.23;;;;;;;25.62;53.28;100777.19;4982049;28;20203;-72
2021/06/20 06:02:08;;;;;;;6.20;3.10;;;;;;;25.60;53.09;100758.06;4983740;28;20187;-70
2021/06/20 06:04:34;;;;;;;7.93;3.83;;;;;;;25.58;53.10;100747.63;4958159;28;20200;-70
2021/06/20 06:06:59;;;;;;;5.17;3.47;;;;;;;25.57;53.59;100734.56;4972939;28;20630;-69
2021/06/20 06:09:24;;;;;;;5.40;3.43;;;;;;;25.55;53.35;100736.41;4984419;28;20210;-69
2021/06/20 06:11:50;;;;;;;6.60;3.30;;;;;;;25.53;53.64;100736.47;4992229;28;20836;-73
2021/06/20 06:14:16;;;;;;;5.43;3.37;;;;;;;25.53;53.55;100746.97;4990888;28;20168;-71
2021/06/20 06:16:42;;;;;;;5.47;3.27;;;;;;;25.52;53.43;100749.66;4991915;28;20175;-72
2021/06/20 06:19:07;;;;;;;6.17;3.10;;;;;;;25.49;53.74;100749.78;4990308;28;20215;-72
2021/06/20 06:21:32;;;;;;;6.13;3.60;;;;;;;25.45;53.52;100743.81;4991246;28;20659;-72
2021/06/20 06:23:57;;;;;;;6.17;3.30;;;;;;;25.46;53.75;100737.63;4974529;28;20204;-71
2021/06/20 06:26:23;;;;;;;8.17;3.33;;;;;;;25.48;53.35;100722.72;4991385;28;20587;-72
2021/06/20 06:28:50;;;;;;;6.17;3.40;;;;;;;25.44;54.01;100712.41;4991256;28;20172;-72
2021/06/20 06:31:15;;;;;;;6.37;3.40;;;;;;;25.43;54.24;100710.69;4990613;28;20192;-72
2021/06/20 06:33:40;;;;;;;6.13;3.53;;;;;;;25.39;54.04;100710.00;4990285;28;20647;-72
2021/06/20 06:36:06;;;;;;;4.80;3.27;;;;;;;25.41;54.03;100710.75;4993115;28;20221;-72
2021/06/20 06:38:31;;;;;;;6.53;3.30;;;;;;;25.42;54.03;100712.47;4987077;28;20188;-72
2021/06/20 06:40:57;;;;;;;5.50;3.57;;;;;;;25.43;53.92;100714.19;5015328;28;20187;-73
2021/06/20 06:43:22;;;;;;;4.60;3.30;;;;;;;25.43;54.21;100721.19;4988715;28;20196;-71
2021/06/20 06:45:47;;;;;;;6.30;3.47;;;;;;;25.42;54.37;100712.47;4991559;28;20219;-72
2021/06/20 06:48:12;;;;;;;10.90;3.50;;;;;;;25.39;53.55;100703.88;4990213;28;20214;-72
2021/06/20 06:50:38;;;;;;;8.43;3.30;;;;;;;25.39;54.23;100712.63;4978963;28;20196;-72
2021/06/20 06:53:03;;;;;;;7.17;3.43;;;;;;;25.41;54.58;100705.50;4981976;28;20176;-72
2021/06/20 06:55:30;;;;;;;6.60;3.67;;;;;;;25.41;54.85;100705.50;4979795;28;20177;-70
2021/06/20 06:57:55;;;;;;;7.50;3.43;;;;;;;25.42;54.71;100701.13;4973093;28;20274;-72
2021/06/20 07:00:21;;;;;;;5.00;3.20;;;;;;;25.44;55.00;100712.41;4977031;28;20297;-71
2021/06/20 07:02:46;;;;;;;7.67;3.47;;;;;;;25.45;55.27;100707.09;4991041;28;20200;-72
2021/06/20 07:05:11;;;;;;;6.20;3.37;;;;;;;25.47;54.78;100700.00;4983791;28;20632;-72
2021/06/20 07:07:37;;;;;;;4.67;3.60;;;;;;;25.47;55.03;100709.66;4954070;28;20187;-71
2021/06/20 07:10:04;;;;;;;8.37;3.57;;;;;;;25.50;54.85;100720.84;4971224;28;20791;-71
2021/06/20 07:12:30;;;;;;;5.77;3.40;;;;;;;25.55;54.40;100715.44;4953959;28;20295;-73
2021/06/20 07:14:56;;;;;;;4.63;3.57;;;;;;;25.56;54.05;100723.19;4971327;28;20184;-72
2021/06/20 07:17:22;;;;;;;8.03;3.60;;;;;;;25.59;55.01;100724.84;4978440;28;20691;-71
2021/06/20 07:19:48;;;;;;;4.93;3.33;;;;;;;25.59;54.32;100728.31;4990424;28;20211;-71
2021/06/20 07:22:13;;;;;;;4.87;3.60;;;;;;;25.62;54.43;100735.22;4990672;28;20182;-72
2021/06/20 07:24:38;;;;;;;5.67;3.40;;;;;;;25.62;54.12;100732.59;4989111;28;20601;-71
2021/06/20 07:27:05;;;;;;;8.70;3.53;;;;;;;25.63;54.28;100732.53;4977584;28;20185;-73
2021/06/20 07:29:30;;;;;;;6.07;3.50;;;;;;;25.65;54.86;100735.91;4953457;28;20207;-72
2021/06/20 07:31:55;;;;;;;7.33;3.80;;;;;;;25.66;54.89;100726.28;4971200;28;20180;-72
2021/06/20 07:34:21;;;;;;;6.85;3.65;;;;;;;25.67;54.81;100726.22;4971014;28;20184;-71
2021/06/20 07:36:46;;;;;;;3.93;3.30;;;;;;;25.70;54.49;100730.50;4970864;28;20251;-72
2021/06/20 07:39:12;;;;;;;7.37;3.33;;;;;;;25.69;54.67;100737.50;4969937;28;20223;-71
2021/06/20 07:41:37;;;;;;;5.77;3.43;;;;;;;25.69;54.76;100742.75;4976426;28;20206;-72
2021/06/20 07:44:02;;;;;;;7.40;3.70;;;;;;;25.71;54.38;100737.44;4990449;28;20262;-72
2021/06/20 07:46:28;;;;;;;6.28;3.72;;;;;;;25.73;54.28;100739.06;4990838;28;20180;-72
2021/06/20 07:48:53;;;;;;;8.73;3.80;;;;;;;25.75;54.54;100725.88;4990547;28;20176;-70
2021/06/20 07:51:18;;;;;;;5.43;3.72;;;;;;;25.77;54.41;100729.28;4990631;28;20234;-70
2021/06/20 07:53:43;;;;;;;8.30;3.85;;;;;;;25.76;54.56;100722.34;4989433;28;20176;-72
2021/06/20 07:56:09;;;;;;;7.78;3.90;;;;;;;25.75;54.61;100724.13;4972874;28;20194;-69
2021/06/20 07:58:34;;;;;;;6.57;3.83;;;;;;;25.78;54.50;100726.59;4988708;28;20187;-71
2021/06/20 08:01:00;;;;;;;6.33;4.13;;;;;;;25.79;54.49;100724.84;4990052;28;20291;-71
2021/06/20 08:03:25;;;;;;;7.40;3.53;;;;;;;25.82;54.73;100722.03;4988617;28;20692;-72
2021/06/20 08:05:50;;;;;;;8.90;4.30;;;;;;;25.83;54.89;100723.78;4990525;28;20183;-72
2021/06/20 08:08:17;;;;;;;7.93;4.00;;;;;;;25.83;54.34;100724.59;4972490;28;20245;-72
2021/06/20 08:10:43;;;;;;;7.45;4.60;;;;;;;25.84;54.99;100725.47;4990071;28;20231;-71
2021/06/20 08:13:08;;;;;;;9.73;4.65;;;;;;;25.85;54.68;100721.91;4990280;28;20262;-71
2021/06/20 08:15:33;;;;;;;8.32;4.00;;;;;;;25.87;54.76;100726.19;4972785;28;20188;-72
2021/06/20 08:17:59;;;;;;;9.30;4.20;;;;;;;25.89;54.73;100728.75;4990312;28;20176;-71
2021/06/20 08:20:24;;;;;;;8.60;4.35;;;;;;;25.90;54.88;100736.56;4971089;28;20219;-72
2021/06/20 08:22:49;;;;;;;9.52;4.50;;;;;;;25.91;54.39;100742.63;4989976;28;20249;-71
2021/06/20 08:25:15;;;;;;;7.97;4.13;;;;;;;25.93;54.49;100741.69;4972275;28;20184;-72
2021/06/20 08:27:40;;;;;;;9.40;4.30;;;;;;;25.95;54.54;100734.59;4972531;28;20180;-71
2021/06/20 08:30:08;;;;;;;9.15;4.72;;;;;;;25.97;54.58;100732.75;4970736;28;20711;-72
2021/06/20 08:32:33;;;;;;;7.55;3.72;;;;;;;25.99;54.03;100736.16;4970461;28;20263;-71
2021/06/20 08:35:00;;;;;;;8.57;4.45;;;;;;;26.01;54.04;100736.09;4970572;28;20270;-72
2021/06/20 08:37:26;;;;;;;9.88;4.75;;;;;;;26.04;54.00;100751.69;4970632;28;20180;-71
2021/06/20 08:39:52;;;;;;;8.70;4.65;;;;;;;26.04;54.22;100757.81;4990035;28;20735;-72
2021/06/20 08:42:18;;;;;;;7.13;4.00;;;;;;;26.05;54.32;100748.16;4972939;28;20188;-71
2021/06/20 08:44:43;;;;;;;9.50;4.40;;;;;;;26.05;54.46;100753.41;4990125;28;20684;-71
2021/06/20 08:47:09;;;;;;;8.35;4.18;;;;;;;26.05;54.08;100779.66;4991479;28;20207;-69
2021/06/20 08:49:34;;;;;;;10.90;4.65;;;;;;;26.06;53.85;100776.13;4999875;28;20263;-72
2021/06/20 08:52:02;;;;;;;8.43;3.90;;;;;;;26.06;54.05;100776.97;5018308;28;20206;-71
2021/06/20 08:54:28;;;;;;;6.97;4.20;;;;;;;26.06;53.80;100781.38;4996884;28;20782;-70
2021/06/20 08:56:54;;;;;;;7.38;4.13;;;;;;;26.07;53.49;100783.09;4993482;28;20186;-72
2021/06/20 08:59:24;;;;;;;8.27;3.70;;;;;;;26.07;53.92;100789.16;4993403;28;20337;-71
2021/06/20 09:01:51;;;;;;;5.57;3.85;;;;;;;26.06;53.57;100784.84;4993649;28;20182;-70
2021/06/20 09:04:27;;;;;;;6.78;3.80;;;;;;;26.07;53.50;100783.09;4976242;28;20245;-70
2021/06/20 09:06:52;;;;;;;9.88;4.43;;;;;;;26.09;53.58;100789.09;4975645;28;20189;-69
2021/06/20 09:09:36;;;;;;;5.80;3.67;;;;;;;26.09;53.89;100799.59;4992755;28;20286;-71
2021/06/20 09:12:11;;;;;;;7.43;4.38;;;;;;;26.08;53.33;100808.41;4993148;28;20176;-71
2021/06/20 09:14:47;;;;;;;8.43;3.97;;;;;;;26.06;53.82;100816.34;4992930;28;20281;-70
2021/06/20 09:17:27;;;;;;;5.50;3.10;;;;;;;26.06;53.63;100824.22;4993162;28;20191;-70
2021/06/20 09:19:57;;;;;;;6.22;3.58;;;;;;;26.05;53.08;100837.41;4992706;28;20692;-71
2021/06/20 09:22:22;;;;;;;6.05;3.65;;;;;;;26.05;53.49;100832.16;4993069;28;20187;-71
2021/06/20 09:25:15;;;;;;;4.27;3.67;;;;;;;26.06;53.35;100828.66;4992659;28;20219;-70
2021/06/20 09:27:52;;;;;;;8.85;3.92;;;;;;;26.05;52.94;100840.03;4992751;28;20186;-71
2021/06/20 09:30:18;;;;;;;6.88;4.18;;;;;;;26.06;53.29;100844.41;4992377;28;20195;-71
2021/06/20 09:33:14;;;;;;;8.07;4.00;;;;;;;26.08;53.09;100842.53;4992826;28;20208;-70
2021/06/20 09:35:48;;;;;;;8.13;3.83;;;;;;;26.08;52.92;100850.44;4992077;28;20198;-71
2021/06/20 09:38:22;;;;;;;5.68;3.47;;;;;;;26.08;52.71;100853.91;4975145;28;20253;-70
2021/06/20 09:40:50;;;;;;;6.82;3.88;;;;;;;26.09;52.56;100849.50;4992537;28;20210;-71
2021/06/20 09:43:17;;;;;;;5.72;3.85;;;;;;;26.11;52.53;100850.31;4992350;28;20673;-71
2021/06/20 09:45:45;;;;;;;7.40;3.78;;;;;;;26.11;52.57;100855.56;4975160;28;20608;-71
2021/06/20 09:48:27;;;;;;;7.63;4.20;;;;;;;26.12;52.17;100842.38;4992470;28;20176;-70
2021/06/20 09:51:13;;;;;;;6.07;3.58;;;;;;;26.13;52.31;100844.06;4974479;28;20192;-71
2021/06/20 09:53:40;;;;;;;6.53;4.03;;;;;;;26.13;51.72;100849.31;4984850;28;20183;-70
2021/06/20 09:56:14;;;;;;;7.00;4.72;;;;;;;26.14;52.13;100858.03;4992228;28;20641;-70
2021/06/20 09:58:43;;;;;;;7.70;4.28;;;;;;;26.13;51.77;100845.81;4990741;28;20203;-70
2021/06/20 10:01:18;;;;;;;6.38;4.50;;;;;;;26.14;51.63;100842.25;4991290;28;20579;-71
2021/06/20 10:03:45;;;;;;;8.15;4.70;;;;;;;26.17;51.49;100844.78;4990681;28;20235;-70
2021/06/20 10:06:12;;;;;;;6.22;4.65;;;;;;;26.18;51.42;100843.84;4991953;28;20187;-71
2021/06/20 10:08:39;;;;;;;6.30;5.05;;;;;;;26.19;51.19;100838.53;4974576;28;20180;-70
2021/06/20 10:11:04;;;;;;;6.97;4.38;;;;;;;26.22;51.45;100824.41;4991872;28;20198;-70
2021/06/20 10:13:30;;;;;;;5.53;4.47;;;;;;;26.22;51.34;100833.16;4992227;28;20172;-71
2021/06/20 10:16:09;;;;;;;6.30;4.60;;;;;;;26.25;51.29;100830.34;4992046;28;20199;-71
2021/06/20 10:18:38;;;;;;;6.40;4.53;;;;;;;26.26;51.58;100837.34;4992153;28;20556;-70
2021/06/20 10:21:03;;;;;;;6.70;4.97;;;;;;;26.26;51.15;100839.09;4991429;28;20700;-70
2021/06/20 10:23:29;;;;;;;8.50;5.28;;;;;;;26.25;51.05;100846.13;4991572;28;20208;-71
2021/06/20 10:26:04;;;;;;;7.38;5.20;;;;;;;26.29;51.30;100850.31;4991605;28;20172;-70
2021/06/20 10:28:31;;;;;;;6.30;4.78;;;;;;;26.29;50.71;100852.94;4991565;28;20183;-71
2021/06/20 10:31:06;;;;;;;6.57;4.72;;;;;;;26.29;50.97;100845.06;4991345;28;20195;-70
2021/06/20 10:33:32;;;;;;;5.65;4.88;;;;;;;26.30;51.35;100851.19;4974244;28;20175;-70
2021/06/20 10:36:03;;;;;;;5.97;5.00;;;;;;;26.32;50.62;100837.06;4991615;28;20179;-70
2021/06/20 10:38:44;;;;;;;5.75;5.03;;;;;;;26.33;50.90;100828.25;4991294;28;20606;-72
2021/06/20 10:41:26;;;;;;;8.68;5.10;;;;;;;26.33;51.06;100822.16;4991212;28;20206;-69
2021/06/20 10:44:00;;;;;;;6.22;5.47;;;;;;;26.35;50.77;100826.44;4990883;28;20207;-70
2021/06/20 10:46:26;;;;;;;7.40;5.10;;;;;;;26.37;50.27;100827.19;4991488;28;20184;-71
2021/06/20 10:48:52;;;;;;;5.97;5.30;;;;;;;26.40;50.83;100826.19;4991088;28;20191;-70
2021/06/20 10:51:19;;;;;;;8.70;5.28;;;;;;;26.40;50.19;100841.97;4973354;28;20180;-71
2021/06/20 10:53:44;;;;;;;6.95;5.35;;;;;;;26.41;50.83;100843.66;4991361;28;20172;-71
2021/06/20 10:56:20;;;;;;;8.23;5.50;;;;;;;26.42;49.77;100835.72;4973369;28;20194;-70
2021/06/20 10:58:50;;;;;;;6.72;5.75;;;;;;;26.45;50.21;100839.97;4990888;28;20171;-70
2021/06/20 11:01:18;;;;;;;7.47;5.50;;;;;;;26.45;50.38;100846.09;4992580;28;20176;-69
2021/06/20 11:04:00;;;;;;;6.05;5.25;;;;;;;26.46;50.11;100857.44;5008678;28;20223;-71
2021/06/20 11:06:26;;;;;;;8.43;6.32;;;;;;;26.47;50.17;100853.91;5005554;28;20211;-71
2021/06/20 11:09:05;;;;;;;7.15;6.05;;;;;;;26.52;50.28;100844.88;4990604;28;20583;-69
2021/06/20 11:11:35;;;;;;;6.22;5.45;;;;;;;26.54;50.42;100847.44;4990882;28;20613;-70
2021/06/20 11:14:09;;;;;;;7.47;5.32;;;;;;;26.63;50.50;100849.69;4990741;28;20171;-68
2021/06/20 11:16:44;;;;;;;6.15;5.47;;;;;;;26.60;50.13;100848.03;4989838;28;20184;-70
2021/06/20 11:19:17;;;;;;;5.82;4.90;;;;;;;26.61;50.00;100856.78;4990057;28;20214;-70
2021/06/20 11:21:52;;;;;;;6.53;5.60;;;;;;;26.64;50.07;100857.50;4991002;28;20724;-69
2021/06/20 11:24:21;;;;;;;7.05;5.35;;;;;;;26.62;49.75;100858.50;4990683;28;20273;-68